sensor_id;sensor_type;location;lat;lon;timestamp;P1;durP1;ratioP1;P2;durP2;ratioP2
25069;SDS011;13064;48.162;11.536;2023-07-24T00:01:58;10.82;;;7.18;;
25069;SDS011;13064;48.162;11.536;2023-07-24T00:04:26;10.77;;;7.25;;
25069;SDS011;13064;48.162;11.536;2023-07-24T00:06:53;12.43;;;7.30;;
25069;SDS011;13064;48.162;11.536;2023-07-24T00:09:21;13.95;;;7.60;;
25069;SDS011;13064;48.162;11.536;2023-07-24T00:11:49;10.80;;;7.32;;
25069;SDS011;13064;48.162;11.536;2023-07-24T00:14:16;12.05;;;7.30;;
25069;SDS011;13064;48.162;11.536;2023-07-24T00:16:44;12.77;;;7.53;;
25069;SDS011;13064;48.162;11.536;2023-07-24T00:19:12;12.02;;;7.32;;
25069;SDS011;13064;48.162;11.536;2023-07-24T00:21:39;10.57;;;7.32;;
25069;SDS011;13064;48.162;11.536;2023-07-24T00:24:07;10.40;;;6.78;;
25069;SDS011;13064;48.162;11.536;2023-07-24T00:26:34;12.68;;;7.15;;
25069;SDS011;13064;48.162;11.536;2023-07-24T00:29:03;12.25;;;8.00;;
25069;SDS011;13064;48.162;11.536;2023-07-24T00:31:31;11.52;;;7.13;;
25069;SDS011;13064;48.162;11.536;2023-07-24T00:33:59;12.18;;;7.00;;
25069;SDS011;13064;48.162;11.536;2023-07-24T00:36:28;10.20;;;6.80;;
25069;SDS011;13064;48.162;11.536;2023-07-24T00:38:56;10.00;;;7.20;;
25069;SDS011;13064;48.162;11.536;2023-07-24T00:41:23;13.18;;;7.22;;
25069;SDS011;13064;48.162;11.536;2023-07-24T00:43:53;14.15;;;7.30;;
25069;SDS011;13064;48.162;11.536;2023-07-24T00:46:21;10.63;;;7.03;;
25069;SDS011;13064;48.162;11.536;2023-07-24T00:48:49;12.07;;;7.60;;
25069;SDS011;13064;48.162;11.536;2023-07-24T00:51:17;9.90;;;6.82;;
25069;SDS011;13064;48.162;11.536;2023-07-24T00:53:45;11.40;;;7.25;;
25069;SDS011;13064;48.162;11.536;2023-07-24T00:56:15;12.90;;;7.53;;
25069;SDS011;13064;48.162;11.536;2023-07-24T00:58:43;11.20;;;7.47;;
25069;SDS011;13064;48.162;11.536;2023-07-24T01:01:10;11.55;;;7.35;;
25069;SDS011;13064;48.162;11.536;2023-07-24T01:03:38;11.82;;;6.30;;
25069;SDS011;13064;48.162;11.536;2023-07-24T01:06:05;10.80;;;6.60;;
25069;SDS011;13064;48.162;11.536;2023-07-24T01:08:33;11.65;;;6.30;;
25069;SDS011;13064;48.162;11.536;2023-07-24T01:11:07;9.98;;;6.53;;
25069;SDS011;13064;48.162;11.536;2023-07-24T01:13:36;12.07;;;8.07;;
25069;SDS011;13064;48.162;11.536;2023-07-24T01:18:35;9.50;;;6.80;;
25069;SDS011;13064;48.162;11.536;2023-07-24T01:21:04;9.90;;;6.40;;
25069;SDS011;13064;48.162;11.536;2023-07-24T01:26:01;9.95;;;6.47;;
25069;SDS011;13064;48.162;11.536;2023-07-24T01:28:29;10.13;;;6.78;;
25069;SDS011;13064;48.162;11.536;2023-07-24T01:30:57;9.65;;;6.88;;
25069;SDS011;13064;48.162;11.536;2023-07-24T01:33:24;10.90;;;7.50;;
25069;SDS011;13064;48.162;11.536;2023-07-24T01:35:57;11.80;;;6.78;;
25069;SDS011;13064;48.162;11.536;2023-07-24T01:38:25;9.30;;;6.63;;
25069;SDS011;13064;48.162;11.536;2023-07-24T01:40:53;11.25;;;6.82;;
25069;SDS011;13064;48.162;11.536;2023-07-24T01:43:21;10.10;;;6.65;;
25069;SDS011;13064;48.162;11.536;2023-07-24T01:45:49;11.13;;;7.18;;
25069;SDS011;13064;48.162;11.536;2023-07-24T01:48:16;9.43;;;6.65;;
25069;SDS011;13064;48.162;11.536;2023-07-24T01:50:44;10.88;;;6.75;;
25069;SDS011;13064;48.162;11.536;2023-07-24T01:53:12;9.68;;;6.45;;
25069;SDS011;13064;48.162;11.536;2023-07-24T01:55:39;11.25;;;7.18;;
25069;SDS011;13064;48.162;11.536;2023-07-24T01:58:07;10.18;;;6.65;;
25069;SDS011;13064;48.162;11.536;2023-07-24T02:00:35;10.73;;;6.63;;
25069;SDS011;13064;48.162;11.536;2023-07-24T02:03:02;10.63;;;7.15;;
25069;SDS011;13064;48.162;11.536;2023-07-24T02:05:30;13.00;;;7.18;;
25069;SDS011;13064;48.162;11.536;2023-07-24T02:07:58;10.93;;;7.15;;
25069;SDS011;13064;48.162;11.536;2023-07-24T02:10:25;10.25;;;6.72;;
25069;SDS011;13064;48.162;11.536;2023-07-24T02:12:53;12.10;;;7.03;;
25069;SDS011;13064;48.162;11.536;2023-07-24T02:15:21;12.45;;;7.32;;
25069;SDS011;13064;48.162;11.536;2023-07-24T02:17:49;11.85;;;7.13;;
25069;SDS011;13064;48.162;11.536;2023-07-24T02:20:17;11.15;;;7.00;;
25069;SDS011;13064;48.162;11.536;2023-07-24T02:22:45;11.80;;;6.55;;
25069;SDS011;13064;48.162;11.536;2023-07-24T02:25:12;10.70;;;6.70;;
25069;SDS011;13064;48.162;11.536;2023-07-24T02:27:40;11.10;;;7.40;;
25069;SDS011;13064;48.162;11.536;2023-07-24T02:30:08;10.60;;;6.88;;
25069;SDS011;13064;48.162;11.536;2023-07-24T02:32:35;11.50;;;7.85;;
25069;SDS011;13064;48.162;11.536;2023-07-24T02:35:03;11.38;;;7.68;;
25069;SDS011;13064;48.162;11.536;2023-07-24T02:37:31;11.95;;;7.18;;
25069;SDS011;13064;48.162;11.536;2023-07-24T02:39:58;13.77;;;7.25;;
25069;SDS011;13064;48.162;11.536;2023-07-24T02:42:26;13.57;;;7.90;;
25069;SDS011;13064;48.162;11.536;2023-07-24T02:44:54;12.18;;;7.53;;
25069;SDS011;13064;48.162;11.536;2023-07-24T02:47:22;15.15;;;7.70;;
25069;SDS011;13064;48.162;11.536;2023-07-24T02:49:50;13.80;;;7.97;;
25069;SDS011;13064;48.162;11.536;2023-07-24T02:52:17;13.10;;;7.72;;
25069;SDS011;13064;48.162;11.536;2023-07-24T02:54:45;13.23;;;8.25;;
25069;SDS011;13064;48.162;11.536;2023-07-24T02:57:12;14.32;;;7.85;;
25069;SDS011;13064;48.162;11.536;2023-07-24T02:59:40;11.85;;;7.65;;
25069;SDS011;13064;48.162;11.536;2023-07-24T03:02:08;13.90;;;8.38;;
25069;SDS011;13064;48.162;11.536;2023-07-24T03:04:35;11.80;;;7.68;;
25069;SDS011;13064;48.162;11.536;2023-07-24T03:07:04;15.20;;;8.07;;
25069;SDS011;13064;48.162;11.536;2023-07-24T03:09:32;12.90;;;7.63;;
25069;SDS011;13064;48.162;11.536;2023-07-24T03:11:59;12.35;;;8.13;;
25069;SDS011;13064;48.162;11.536;2023-07-24T03:14:27;15.50;;;8.48;;
25069;SDS011;13064;48.162;11.536;2023-07-24T03:16:54;14.20;;;8.13;;
25069;SDS011;13064;48.162;11.536;2023-07-24T03:19:22;13.07;;;8.27;;
25069;SDS011;13064;48.162;11.536;2023-07-24T03:21:50;17.75;;;8.98;;
25069;SDS011;13064;48.162;11.536;2023-07-24T03:24:17;14.48;;;8.40;;
25069;SDS011;13064;48.162;11.536;2023-07-24T03:26:45;18.35;;;9.07;;
25069;SDS011;13064;48.162;11.536;2023-07-24T03:29:13;13.95;;;8.80;;
25069;SDS011;13064;48.162;11.536;2023-07-24T03:31:40;16.42;;;9.52;;
25069;SDS011;13064;48.162;11.536;2023-07-24T03:34:08;18.63;;;10.07;;
25069;SDS011;13064;48.162;11.536;2023-07-24T03:36:36;16.27;;;9.70;;
25069;SDS011;13064;48.162;11.536;2023-07-24T03:39:11;15.65;;;10.38;;
25069;SDS011;13064;48.162;11.536;2023-07-24T03:41:39;16.65;;;9.55;;
25069;SDS011;13064;48.162;11.536;2023-07-24T03:44:07;15.93;;;9.48;;
25069;SDS011;13064;48.162;11.536;2023-07-24T03:46:34;15.75;;;9.43;;
25069;SDS011;13064;48.162;11.536;2023-07-24T03:49:02;17.92;;;10.70;;
25069;SDS011;13064;48.162;11.536;2023-07-24T03:51:30;16.30;;;9.90;;
25069;SDS011;13064;48.162;11.536;2023-07-24T03:53:57;18.50;;;9.88;;
25069;SDS011;13064;48.162;11.536;2023-07-24T03:56:25;16.45;;;10.05;;
25069;SDS011;13064;48.162;11.536;2023-07-24T03:58:53;17.30;;;10.18;;
25069;SDS011;13064;48.162;11.536;2023-07-24T04:01:21;16.17;;;10.15;;
25069;SDS011;13064;48.162;11.536;2023-07-24T04:03:48;16.65;;;10.65;;
25069;SDS011;13064;48.162;11.536;2023-07-24T04:06:16;16.75;;;10.43;;
25069;SDS011;13064;48.162;11.536;2023-07-24T04:08:44;18.15;;;10.77;;
25069;SDS011;13064;48.162;11.536;2023-07-24T04:11:12;15.93;;;9.88;;
25069;SDS011;13064;48.162;11.536;2023-07-24T04:13:39;17.13;;;11.00;;
25069;SDS011;13064;48.162;11.536;2023-07-24T04:16:07;12.73;;;8.90;;
25069;SDS011;13064;48.162;11.536;2023-07-24T04:18:34;17.33;;;10.55;;
25069;SDS011;13064;48.162;11.536;2023-07-24T04:21:02;19.30;;;11.18;;
25069;SDS011;13064;48.162;11.536;2023-07-24T04:23:30;17.38;;;10.90;;
25069;SDS011;13064;48.162;11.536;2023-07-24T04:25:57;17.50;;;10.48;;
25069;SDS011;13064;48.162;11.536;2023-07-24T04:28:25;16.50;;;10.48;;
25069;SDS011;13064;48.162;11.536;2023-07-24T04:30:52;16.88;;;10.50;;
25069;SDS011;13064;48.162;11.536;2023-07-24T04:33:20;14.98;;;10.00;;
25069;SDS011;13064;48.162;11.536;2023-07-24T04:35:48;19.88;;;11.68;;
25069;SDS011;13064;48.162;11.536;2023-07-24T04:38:16;20.45;;;11.20;;
25069;SDS011;13064;48.162;11.536;2023-07-24T04:40:44;17.10;;;10.25;;
25069;SDS011;13064;48.162;11.536;2023-07-24T04:43:12;16.73;;;10.35;;
25069;SDS011;13064;48.162;11.536;2023-07-24T04:45:39;17.58;;;10.60;;
25069;SDS011;13064;48.162;11.536;2023-07-24T04:48:07;17.75;;;10.85;;
25069;SDS011;13064;48.162;11.536;2023-07-24T04:50:34;18.45;;;10.95;;
25069;SDS011;13064;48.162;11.536;2023-07-24T04:53:02;18.02;;;11.05;;
25069;SDS011;13064;48.162;11.536;2023-07-24T04:55:30;19.20;;;11.02;;
25069;SDS011;13064;48.162;11.536;2023-07-24T04:57:57;16.40;;;10.93;;
25069;SDS011;13064;48.162;11.536;2023-07-24T05:00:25;18.92;;;10.75;;
25069;SDS011;13064;48.162;11.536;2023-07-24T05:02:53;19.20;;;10.45;;
25069;SDS011;13064;48.162;11.536;2023-07-24T05:05:20;17.40;;;10.35;;
25069;SDS011;13064;48.162;11.536;2023-07-24T05:07:48;17.20;;;10.10;;
25069;SDS011;13064;48.162;11.536;2023-07-24T05:10:17;15.48;;;9.95;;
25069;SDS011;13064;48.162;11.536;2023-07-24T05:12:44;16.02;;;10.68;;
25069;SDS011;13064;48.162;11.536;2023-07-24T05:15:12;14.80;;;10.02;;
25069;SDS011;13064;48.162;11.536;2023-07-24T05:17:43;16.67;;;10.10;;
25069;SDS011;13064;48.162;11.536;2023-07-24T05:20:11;16.42;;;9.82;;
25069;SDS011;13064;48.162;11.536;2023-07-24T05:22:39;15.90;;;10.50;;
25069;SDS011;13064;48.162;11.536;2023-07-24T05:25:06;15.57;;;9.65;;
25069;SDS011;13064;48.162;11.536;2023-07-24T05:27:34;17.33;;;10.63;;
25069;SDS011;13064;48.162;11.536;2023-07-24T05:30:02;17.85;;;9.95;;
25069;SDS011;13064;48.162;11.536;2023-07-24T05:32:30;15.48;;;10.05;;
25069;SDS011;13064;48.162;11.536;2023-07-24T05:34:58;14.18;;;9.05;;
25069;SDS011;13064;48.162;11.536;2023-07-24T05:37:25;15.70;;;10.35;;
25069;SDS011;13064;48.162;11.536;2023-07-24T05:39:53;17.63;;;8.98;;
25069;SDS011;13064;48.162;11.536;2023-07-24T05:42:21;15.00;;;9.77;;
25069;SDS011;13064;48.162;11.536;2023-07-24T05:44:48;16.30;;;10.18;;
25069;SDS011;13064;48.162;11.536;2023-07-24T05:47:16;14.18;;;9.23;;
25069;SDS011;13064;48.162;11.536;2023-07-24T05:49:44;14.57;;;8.88;;
25069;SDS011;13064;48.162;11.536;2023-07-24T05:52:12;13.30;;;8.85;;
25069;SDS011;13064;48.162;11.536;2023-07-24T05:54:40;17.13;;;9.45;;
25069;SDS011;13064;48.162;11.536;2023-07-24T05:57:08;14.15;;;9.07;;
25069;SDS011;13064;48.162;11.536;2023-07-24T06:02:44;17.45;;;9.73;;
25069;SDS011;13064;48.162;11.536;2023-07-24T06:05:11;14.75;;;8.50;;
25069;SDS011;13064;48.162;11.536;2023-07-24T06:10:53;14.02;;;8.60;;
25069;SDS011;13064;48.162;11.536;2023-07-24T06:13:21;17.52;;;8.73;;
25069;SDS011;13064;48.162;11.536;2023-07-24T06:15:49;13.80;;;8.20;;
25069;SDS011;13064;48.162;11.536;2023-07-24T06:21:29;13.32;;;9.13;;
25069;SDS011;13064;48.162;11.536;2023-07-24T06:28:04;16.45;;;9.13;;
25069;SDS011;13064;48.162;11.536;2023-07-24T06:33:24;13.25;;;8.77;;
25069;SDS011;13064;48.162;11.536;2023-07-24T06:35:51;15.48;;;9.05;;
25069;SDS011;13064;48.162;11.536;2023-07-24T06:41:10;14.93;;;8.50;;
25069;SDS011;13064;48.162;11.536;2023-07-24T06:47:33;13.85;;;8.60;;
25069;SDS011;13064;48.162;11.536;2023-07-24T06:50:01;13.18;;;8.82;;
25069;SDS011;13064;48.162;11.536;2023-07-24T06:56:30;15.55;;;8.50;;
25069;SDS011;13064;48.162;11.536;2023-07-24T07:02:59;12.30;;;8.68;;
25069;SDS011;13064;48.162;11.536;2023-07-24T07:09:28;14.25;;;8.52;;
25069;SDS011;13064;48.162;11.536;2023-07-24T07:15:56;13.00;;;8.15;;
25069;SDS011;13064;48.162;11.536;2023-07-24T07:22:24;13.30;;;8.50;;
25069;SDS011;13064;48.162;11.536;2023-07-24T07:28:46;17.27;;;9.68;;
25069;SDS011;13064;48.162;11.536;2023-07-24T07:42:27;15.23;;;9.23;;
25069;SDS011;13064;48.162;11.536;2023-07-24T07:48:55;15.55;;;9.07;;
25069;SDS011;13064;48.162;11.536;2023-07-24T07:51:23;20.48;;;9.25;;
25069;SDS011;13064;48.162;11.536;2023-07-24T07:57:52;14.93;;;9.48;;
25069;SDS011;13064;48.162;11.536;2023-07-24T08:04:20;14.35;;;8.90;;
25069;SDS011;13064;48.162;11.536;2023-07-24T08:06:48;17.20;;;9.90;;
25069;SDS011;13064;48.162;11.536;2023-07-24T08:12:27;25.17;;;10.85;;
25069;SDS011;13064;48.162;11.536;2023-07-24T08:14:57;16.63;;;9.82;;
25069;SDS011;13064;48.162;11.536;2023-07-24T08:17:25;13.40;;;9.25;;
25069;SDS011;13064;48.162;11.536;2023-07-24T08:19:54;15.60;;;9.13;;
25069;SDS011;13064;48.162;11.536;2023-07-24T08:22:21;16.92;;;8.98;;
25069;SDS011;13064;48.162;11.536;2023-07-24T08:24:50;15.02;;;9.40;;
25069;SDS011;13064;48.162;11.536;2023-07-24T08:27:21;14.18;;;8.90;;
25069;SDS011;13064;48.162;11.536;2023-07-24T08:29:52;15.80;;;9.13;;
25069;SDS011;13064;48.162;11.536;2023-07-24T08:32:19;13.15;;;8.60;;
25069;SDS011;13064;48.162;11.536;2023-07-24T08:34:47;11.07;;;8.07;;
25069;SDS011;13064;48.162;11.536;2023-07-24T08:37:17;12.60;;;7.82;;
25069;SDS011;13064;48.162;11.536;2023-07-24T08:39:44;14.18;;;7.57;;
25069;SDS011;13064;48.162;11.536;2023-07-24T08:42:12;10.70;;;7.30;;
25069;SDS011;13064;48.162;11.536;2023-07-24T08:44:42;11.77;;;7.88;;
25069;SDS011;13064;48.162;11.536;2023-07-24T08:47:10;11.98;;;7.95;;
25069;SDS011;13064;48.162;11.536;2023-07-24T08:49:39;10.93;;;7.22;;
25069;SDS011;13064;48.162;11.536;2023-07-24T08:52:07;11.18;;;7.65;;
25069;SDS011;13064;48.162;11.536;2023-07-24T08:54:40;12.15;;;8.23;;
25069;SDS011;13064;48.162;11.536;2023-07-24T08:57:08;11.18;;;7.22;;
25069;SDS011;13064;48.162;11.536;2023-07-24T08:59:36;12.90;;;7.95;;
25069;SDS011;13064;48.162;11.536;2023-07-24T09:02:04;11.80;;;8.20;;
25069;SDS011;13064;48.162;11.536;2023-07-24T09:04:32;11.35;;;7.70;;
25069;SDS011;13064;48.162;11.536;2023-07-24T09:07:00;13.68;;;7.88;;
25069;SDS011;13064;48.162;11.536;2023-07-24T09:09:31;14.02;;;8.73;;
25069;SDS011;13064;48.162;11.536;2023-07-24T09:11:59;12.10;;;8.43;;
25069;SDS011;13064;48.162;11.536;2023-07-24T09:14:27;12.13;;;7.88;;
25069;SDS011;13064;48.162;11.536;2023-07-24T09:17:02;13.90;;;8.88;;
25069;SDS011;13064;48.162;11.536;2023-07-24T09:19:30;12.13;;;8.00;;
25069;SDS011;13064;48.162;11.536;2023-07-24T09:22:07;13.93;;;8.48;;
25069;SDS011;13064;48.162;11.536;2023-07-24T09:24:36;15.05;;;8.70;;
25069;SDS011;13064;48.162;11.536;2023-07-24T09:27:06;14.70;;;8.98;;
25069;SDS011;13064;48.162;11.536;2023-07-24T09:29:34;17.73;;;8.88;;
25069;SDS011;13064;48.162;11.536;2023-07-24T09:32:02;13.90;;;8.25;;
25069;SDS011;13064;48.162;11.536;2023-07-24T09:34:30;15.05;;;8.38;;
25069;SDS011;13064;48.162;11.536;2023-07-24T09:36:59;13.00;;;8.27;;
25069;SDS011;13064;48.162;11.536;2023-07-24T09:39:27;10.25;;;7.20;;
25069;SDS011;13064;48.162;11.536;2023-07-24T09:42:02;12.65;;;7.82;;
25069;SDS011;13064;48.162;11.536;2023-07-24T09:44:31;11.52;;;6.93;;
25069;SDS011;13064;48.162;11.536;2023-07-24T09:46:59;11.75;;;7.22;;
25069;SDS011;13064;48.162;11.536;2023-07-24T09:49:47;10.55;;;6.50;;
25069;SDS011;13064;48.162;11.536;2023-07-24T09:52:17;9.73;;;6.45;;
25069;SDS011;13064;48.162;11.536;2023-07-24T09:54:53;9.32;;;6.57;;
25069;SDS011;13064;48.162;11.536;2023-07-24T09:57:23;8.68;;;5.57;;
25069;SDS011;13064;48.162;11.536;2023-07-24T09:59:51;7.82;;;5.65;;
25069;SDS011;13064;48.162;11.536;2023-07-24T10:02:20;11.18;;;5.35;;
25069;SDS011;13064;48.162;11.536;2023-07-24T10:12:27;7.25;;;4.80;;
25069;SDS011;13064;48.162;11.536;2023-07-24T10:14:58;6.78;;;4.18;;
25069;SDS011;13064;48.162;11.536;2023-07-24T10:25:29;9.18;;;4.30;;
25069;SDS011;13064;48.162;11.536;2023-07-24T10:31:54;7.88;;;4.68;;
25069;SDS011;13064;48.162;11.536;2023-07-24T10:42:22;7.55;;;4.90;;
25069;SDS011;13064;48.162;11.536;2023-07-24T10:48:44;7.95;;;4.47;;
25069;SDS011;13064;48.162;11.536;2023-07-24T10:55:12;6.88;;;4.72;;
25069;SDS011;13064;48.162;11.536;2023-07-24T10:57:40;7.20;;;4.40;;
25069;SDS011;13064;48.162;11.536;2023-07-24T11:00:08;7.85;;;4.85;;
25069;SDS011;13064;48.162;11.536;2023-07-24T11:06:35;6.30;;;4.78;;
25069;SDS011;13064;48.162;11.536;2023-07-24T11:13:09;12.07;;;4.90;;
25069;SDS011;13064;48.162;11.536;2023-07-24T11:19:37;5.75;;;4.20;;
25069;SDS011;13064;48.162;11.536;2023-07-24T11:26:05;6.38;;;4.40;;
25069;SDS011;13064;48.162;11.536;2023-07-24T11:32:35;8.07;;;4.40;;
25069;SDS011;13064;48.162;11.536;2023-07-24T11:42:09;8.50;;;4.65;;
25069;SDS011;13064;48.162;11.536;2023-07-24T11:44:36;6.65;;;4.50;;
25069;SDS011;13064;48.162;11.536;2023-07-24T11:51:05;5.80;;;4.15;;
25069;SDS011;13064;48.162;11.536;2023-07-24T11:57:33;7.32;;;4.43;;
25069;SDS011;13064;48.162;11.536;2023-07-24T12:00:17;6.80;;;3.85;;
25069;SDS011;13064;48.162;11.536;2023-07-24T12:02:45;7.78;;;4.63;;
25069;SDS011;13064;48.162;11.536;2023-07-24T12:05:14;6.13;;;3.97;;
25069;SDS011;13064;48.162;11.536;2023-07-24T12:11:43;5.53;;;4.03;;
25069;SDS011;13064;48.162;11.536;2023-07-24T12:17:26;5.70;;;4.13;;
25069;SDS011;13064;48.162;11.536;2023-07-24T12:19:53;7.40;;;4.53;;
25069;SDS011;13064;48.162;11.536;2023-07-24T12:22:21;7.32;;;4.63;;
25069;SDS011;13064;48.162;11.536;2023-07-24T12:24:49;6.75;;;4.60;;
25069;SDS011;13064;48.162;11.536;2023-07-24T12:27:16;6.85;;;4.40;;
25069;SDS011;13064;48.162;11.536;2023-07-24T12:30:01;8.52;;;4.93;;
25069;SDS011;13064;48.162;11.536;2023-07-24T12:32:29;6.88;;;4.38;;
25069;SDS011;13064;48.162;11.536;2023-07-24T12:34:57;7.30;;;4.85;;
25069;SDS011;13064;48.162;11.536;2023-07-24T12:40:42;7.30;;;4.82;;
25069;SDS011;13064;48.162;11.536;2023-07-24T12:43:10;6.70;;;4.95;;
25069;SDS011;13064;48.162;11.536;2023-07-24T12:49:38;8.88;;;5.13;;
25069;SDS011;13064;48.162;11.536;2023-07-24T12:56:07;9.65;;;4.95;;
25069;SDS011;13064;48.162;11.536;2023-07-24T13:01:46;7.97;;;5.28;;
25069;SDS011;13064;48.162;11.536;2023-07-24T13:04:14;10.38;;;5.63;;
25069;SDS011;13064;48.162;11.536;2023-07-24T13:10:36;8.25;;;4.82;;
25069;SDS011;13064;48.162;11.536;2023-07-24T13:13:04;8.27;;;5.10;;
25069;SDS011;13064;48.162;11.536;2023-07-24T13:15:32;7.60;;;4.68;;
25069;SDS011;13064;48.162;11.536;2023-07-24T13:18:00;8.98;;;5.05;;
25069;SDS011;13064;48.162;11.536;2023-07-24T13:25:07;8.20;;;4.75;;
25069;SDS011;13064;48.162;11.536;2023-07-24T13:31:34;8.20;;;4.82;;
25069;SDS011;13064;48.162;11.536;2023-07-24T13:34:13;8.77;;;5.10;;
25069;SDS011;13064;48.162;11.536;2023-07-24T13:36:41;8.57;;;4.85;;
25069;SDS011;13064;48.162;11.536;2023-07-24T13:39:08;10.68;;;5.60;;
25069;SDS011;13064;48.162;11.536;2023-07-24T13:45:31;6.82;;;4.70;;
25069;SDS011;13064;48.162;11.536;2023-07-24T13:48:00;8.07;;;5.05;;
25069;SDS011;13064;48.162;11.536;2023-07-24T13:50:29;10.15;;;4.97;;
25069;SDS011;13064;48.162;11.536;2023-07-24T13:52:56;9.13;;;5.30;;
25069;SDS011;13064;48.162;11.536;2023-07-24T13:55:24;7.05;;;4.65;;
25069;SDS011;13064;48.162;11.536;2023-07-24T13:57:51;7.78;;;5.38;;
25069;SDS011;13064;48.162;11.536;2023-07-24T14:00:19;8.73;;;5.40;;
25069;SDS011;13064;48.162;11.536;2023-07-24T14:02:47;6.53;;;4.55;;
25069;SDS011;13064;48.162;11.536;2023-07-24T14:12:52;6.65;;;4.47;;
25069;SDS011;13064;48.162;11.536;2023-07-24T14:19:20;6.22;;;4.32;;
25069;SDS011;13064;48.162;11.536;2023-07-24T14:25:44;7.43;;;4.00;;
25069;SDS011;13064;48.162;11.536;2023-07-24T14:32:12;9.30;;;3.70;;
25069;SDS011;13064;48.162;11.536;2023-07-24T14:49:35;5.13;;;3.10;;
25069;SDS011;13064;48.162;11.536;2023-07-24T14:55:57;4.82;;;2.72;;
25069;SDS011;13064;48.162;11.536;2023-07-24T15:02:25;6.63;;;3.30;;
25069;SDS011;13064;48.162;11.536;2023-07-24T15:08:53;2.90;;;2.25;;
25069;SDS011;13064;48.162;11.536;2023-07-24T15:15:17;4.18;;;2.80;;
25069;SDS011;13064;48.162;11.536;2023-07-24T15:21:39;4.30;;;2.72;;
25069;SDS011;13064;48.162;11.536;2023-07-24T15:28:07;4.40;;;2.53;;
25069;SDS011;13064;48.162;11.536;2023-07-24T15:34:35;3.72;;;2.55;;
25069;SDS011;13064;48.162;11.536;2023-07-24T15:40:59;4.57;;;2.90;;
25069;SDS011;13064;48.162;11.536;2023-07-24T15:43:27;4.10;;;2.70;;
25069;SDS011;13064;48.162;11.536;2023-07-24T15:45:54;4.60;;;3.15;;
25069;SDS011;13064;48.162;11.536;2023-07-24T15:52:17;4.32;;;2.85;;
25069;SDS011;13064;48.162;11.536;2023-07-24T15:58:21;6.25;;;3.72;;
25069;SDS011;13064;48.162;11.536;2023-07-24T16:04:50;5.80;;;3.53;;
25069;SDS011;13064;48.162;11.536;2023-07-24T16:11:16;4.57;;;3.20;;
25069;SDS011;13064;48.162;11.536;2023-07-24T16:17:38;5.53;;;2.92;;
25069;SDS011;13064;48.162;11.536;2023-07-24T16:24:06;6.07;;;3.30;;
25069;SDS011;13064;48.162;11.536;2023-07-24T16:26:34;5.20;;;3.70;;
25069;SDS011;13064;48.162;11.536;2023-07-24T16:36:56;4.55;;;3.42;;
25069;SDS011;13064;48.162;11.536;2023-07-24T16:47:38;4.13;;;2.88;;
25069;SDS011;13064;48.162;11.536;2023-07-24T16:54:09;5.07;;;2.80;;
25069;SDS011;13064;48.162;11.536;2023-07-24T16:56:37;4.43;;;2.95;;
25069;SDS011;13064;48.162;11.536;2023-07-24T16:59:05;4.75;;;3.33;;
25069;SDS011;13064;48.162;11.536;2023-07-24T17:01:33;4.68;;;3.40;;
25069;SDS011;13064;48.162;11.536;2023-07-24T17:14:56;5.38;;;3.40;;
25069;SDS011;13064;48.162;11.536;2023-07-24T17:17:24;5.30;;;3.78;;
25069;SDS011;13064;48.162;11.536;2023-07-24T17:26:45;4.35;;;3.22;;
25069;SDS011;13064;48.162;11.536;2023-07-24T17:29:30;5.53;;;3.78;;
25069;SDS011;13064;48.162;11.536;2023-07-24T17:31:58;4.47;;;3.28;;
25069;SDS011;13064;48.162;11.536;2023-07-24T17:34:26;5.07;;;3.50;;
25069;SDS011;13064;48.162;11.536;2023-07-24T17:40:03;6.32;;;3.60;;
25069;SDS011;13064;48.162;11.536;2023-07-24T17:46:31;6.15;;;3.90;;
25069;SDS011;13064;48.162;11.536;2023-07-24T17:48:59;8.45;;;4.45;;
25069;SDS011;13064;48.162;11.536;2023-07-24T17:51:27;5.65;;;3.83;;
25069;SDS011;13064;48.162;11.536;2023-07-24T17:53:55;5.65;;;3.70;;
25069;SDS011;13064;48.162;11.536;2023-07-24T17:56:26;5.53;;;3.53;;
25069;SDS011;13064;48.162;11.536;2023-07-24T17:58:53;7.05;;;3.78;;
25069;SDS011;13064;48.162;11.536;2023-07-24T18:01:21;6.82;;;4.05;;
25069;SDS011;13064;48.162;11.536;2023-07-24T18:03:49;6.97;;;4.28;;
25069;SDS011;13064;48.162;11.536;2023-07-24T18:06:17;4.95;;;3.60;;
25069;SDS011;13064;48.162;11.536;2023-07-24T18:08:44;6.07;;;4.30;;
25069;SDS011;13064;48.162;11.536;2023-07-24T18:11:12;6.22;;;4.13;;
25069;SDS011;13064;48.162;11.536;2023-07-24T18:13:39;7.78;;;4.22;;
25069;SDS011;13064;48.162;11.536;2023-07-24T18:16:07;5.80;;;3.85;;
25069;SDS011;13064;48.162;11.536;2023-07-24T18:18:35;5.50;;;3.80;;
25069;SDS011;13064;48.162;11.536;2023-07-24T18:21:03;5.57;;;3.78;;
25069;SDS011;13064;48.162;11.536;2023-07-24T18:23:34;7.40;;;4.18;;
25069;SDS011;13064;48.162;11.536;2023-07-24T18:26:02;6.03;;;4.05;;
25069;SDS011;13064;48.162;11.536;2023-07-24T18:28:30;6.95;;;4.13;;
25069;SDS011;13064;48.162;11.536;2023-07-24T18:30:57;8.27;;;4.00;;
25069;SDS011;13064;48.162;11.536;2023-07-24T18:33:25;6.60;;;4.18;;
25069;SDS011;13064;48.162;11.536;2023-07-24T18:35:53;6.68;;;4.90;;
25069;SDS011;13064;48.162;11.536;2023-07-24T18:38:20;6.03;;;4.10;;
25069;SDS011;13064;48.162;11.536;2023-07-24T18:40:48;6.65;;;3.75;;
25069;SDS011;13064;48.162;11.536;2023-07-24T18:43:16;8.57;;;4.18;;
25069;SDS011;13064;48.162;11.536;2023-07-24T18:45:43;7.03;;;4.32;;
25069;SDS011;13064;48.162;11.536;2023-07-24T18:48:11;7.47;;;4.45;;
25069;SDS011;13064;48.162;11.536;2023-07-24T18:50:40;6.30;;;3.95;;
25069;SDS011;13064;48.162;11.536;2023-07-24T18:53:08;6.57;;;5.00;;
25069;SDS011;13064;48.162;11.536;2023-07-24T18:55:35;5.85;;;4.30;;
25069;SDS011;13064;48.162;11.536;2023-07-24T18:58:05;7.15;;;4.47;;
25069;SDS011;13064;48.162;11.536;2023-07-24T19:00:32;8.07;;;4.25;;
25069;SDS011;13064;48.162;11.536;2023-07-24T19:03:00;7.03;;;4.53;;
25069;SDS011;13064;48.162;11.536;2023-07-24T19:05:27;5.95;;;4.20;;
25069;SDS011;13064;48.162;11.536;2023-07-24T19:07:55;7.30;;;4.72;;
25069;SDS011;13064;48.162;11.536;2023-07-24T19:10:23;6.75;;;4.47;;
25069;SDS011;13064;48.162;11.536;2023-07-24T19:12:50;9.13;;;5.53;;
25069;SDS011;13064;48.162;11.536;2023-07-24T19:15:18;10.20;;;4.78;;
25069;SDS011;13064;48.162;11.536;2023-07-24T19:17:47;7.25;;;5.10;;
25069;SDS011;13064;48.162;11.536;2023-07-24T19:20:15;9.40;;;5.38;;
25069;SDS011;13064;48.162;11.536;2023-07-24T19:22:43;6.85;;;5.32;;
25069;SDS011;13064;48.162;11.536;2023-07-24T19:25:11;7.00;;;5.22;;
25069;SDS011;13064;48.162;11.536;2023-07-24T19:27:38;9.07;;;5.43;;
25069;SDS011;13064;48.162;11.536;2023-07-24T19:30:06;7.88;;;5.28;;
25069;SDS011;13064;48.162;11.536;2023-07-24T19:32:34;7.63;;;5.53;;
25069;SDS011;13064;48.162;11.536;2023-07-24T19:35:07;7.38;;;5.38;;
25069;SDS011;13064;48.162;11.536;2023-07-24T19:37:35;8.98;;;5.03;;
25069;SDS011;13064;48.162;11.536;2023-07-24T19:40:03;7.50;;;5.45;;
25069;SDS011;13064;48.162;11.536;2023-07-24T19:42:31;8.77;;;5.60;;
25069;SDS011;13064;48.162;11.536;2023-07-24T19:44:59;7.40;;;5.78;;
25069;SDS011;13064;48.162;11.536;2023-07-24T19:47:26;7.97;;;5.68;;
25069;SDS011;13064;48.162;11.536;2023-07-24T19:49:54;7.80;;;5.28;;
25069;SDS011;13064;48.162;11.536;2023-07-24T19:52:22;8.05;;;5.72;;
25069;SDS011;13064;48.162;11.536;2023-07-24T19:54:50;10.50;;;5.50;;